sensor_id;sensor_type;location;lat;lon;timestamp;pressure;altitude;pressure_sealevel;temperature;humidity
4085;BME280;2057;50.858;6.572;2023-05-02T00:01:05;100646.47;;;10.74;100.00
4085;BME280;2057;50.858;6.572;2023-05-02T00:03:31;100637.09;;;10.73;100.00
4085;BME280;2057;50.858;6.572;2023-05-02T00:05:59;100648.75;;;10.70;100.00
4085;BME280;2057;50.858;6.572;2023-05-02T00:08:25;100648.41;;;10.80;100.00
4085;BME280;2057;50.858;6.572;2023-05-02T00:10:50;100648.06;;;10.56;100.00
4085;BME280;2057;50.858;6.572;2023-05-02T00:13:15;100664.00;;;10.53;100.00
4085;BME280;2057;50.858;6.572;2023-05-02T00:15:41;100663.06;;;10.36;100.00
4085;BME280;2057;50.858;6.572;2023-05-02T00:18:06;100667.34;;;10.52;100.00
4085;BME280;2057;50.858;6.572;2023-05-02T00:20:34;100665.84;;;10.24;100.00
4085;BME280;2057;50.858;6.572;2023-05-02T00:22:59;100670.75;;;10.21;100.00
4085;BME280;2057;50.858;6.572;2023-05-02T00:25:25;100668.31;;;10.23;100.00
4085;BME280;2057;50.858;6.572;2023-05-02T00:27:50;100674.28;;;10.08;100.00
4085;BME280;2057;50.858;6.572;2023-05-02T00:30:17;100673.75;;;10.14;100.00
4085;BME280;2057;50.858;6.572;2023-05-02T00:32:43;100670.19;;;10.10;100.00
4085;BME280;2057;50.858;6.572;2023-05-02T00:35:11;100677.84;;;10.12;100.00
4085;BME280;2057;50.858;6.572;2023-05-02T00:37:36;100666.59;;;10.07;100.00
4085;BME280;2057;50.858;6.572;2023-05-02T00:40:01;100662.81;;;10.15;100.00
4085;BME280;2057;50.858;6.572;2023-05-02T00:42:27;100666.53;;;10.05;100.00
4085;BME280;2057;50.858;6.572;2023-05-02T00:44:57;100672.47;;;10.05;100.00
4085;BME280;2057;50.858;6.572;2023-05-02T00:47:22;100678.53;;;9.93;100.00
4085;BME280;2057;50.858;6.572;2023-05-02T00:49:49;100685.53;;;9.97;100.00
4085;BME280;2057;50.858;6.572;2023-05-02T00:52:14;100687.19;;;9.96;100.00
4085;BME280;2057;50.858;6.572;2023-05-02T00:54:39;100693.22;;;9.98;100.00
4085;BME280;2057;50.858;6.572;2023-05-02T00:57:05;100691.94;;;9.90;100.00
4085;BME280;2057;50.858;6.572;2023-05-02T00:59:32;100687.19;;;9.96;100.00
4085;BME280;2057;50.858;6.572;2023-05-02T01:10:22;100703.38;;;9.98;100.00
4085;BME280;2057;50.858;6.572;2023-05-02T01:13:02;100713.44;;;9.97;100.00
4085;BME280;2057;50.858;6.572;2023-05-02T01:15:31;100716.84;;;9.97;100.00
4085;BME280;2057;50.858;6.572;2023-05-02T01:17:59;100725.56;;;10.02;100.00
4085;BME280;2057;50.858;6.572;2023-05-02T01:20:28;100723.22;;;9.91;100.00
4085;BME280;2057;50.858;6.572;2023-05-02T01:23:01;100730.31;;;9.81;100.00
4085;BME280;2057;50.858;6.572;2023-05-02T01:31:25;100736.16;;;9.80;100.00
4085;BME280;2057;50.858;6.572;2023-05-02T01:34:10;100733.03;;;9.69;100.00
4085;BME280;2057;50.858;6.572;2023-05-02T01:36:40;100732.97;;;9.68;100.00
4085;BME280;2057;50.858;6.572;2023-05-02T01:39:08;100734.53;;;9.66;100.00
4085;BME280;2057;50.858;6.572;2023-05-02T01:41:35;100743.19;;;9.69;100.00
4085;BME280;2057;50.858;6.572;2023-05-02T01:44:01;100731.47;;;9.71;100.00
4085;BME280;2057;50.858;6.572;2023-05-02T01:46:31;100733.94;;;9.70;100.00
4085;BME280;2057;50.858;6.572;2023-05-02T01:49:00;100737.69;;;9.62;100.00
4085;BME280;2057;50.858;6.572;2023-05-02T01:51:29;100742.50;;;9.57;100.00
4085;BME280;2057;50.858;6.572;2023-05-02T01:53:58;100749.56;;;9.63;100.00
4085;BME280;2057;50.858;6.572;2023-05-02T01:56:26;100760.41;;;9.60;100.00
4085;BME280;2057;50.858;6.572;2023-05-02T01:58:54;100755.31;;;9.60;100.00
4085;BME280;2057;50.858;6.572;2023-05-02T02:01:21;100759.69;;;9.63;100.00
4085;BME280;2057;50.858;6.572;2023-05-02T02:03:49;100762.78;;;9.57;100.00
4085;BME280;2057;50.858;6.572;2023-05-02T02:06:14;100761.28;;;9.61;100.00
4085;BME280;2057;50.858;6.572;2023-05-02T02:08:40;100757.44;;;9.52;100.00
4085;BME280;2057;50.858;6.572;2023-05-02T02:11:09;100762.50;;;9.52;100.00
4085;BME280;2057;50.858;6.572;2023-05-02T02:13:43;100765.31;;;9.57;100.00
4085;BME280;2057;50.858;6.572;2023-05-02T02:16:11;100766.34;;;9.61;100.00
4085;BME280;2057;50.858;6.572;2023-05-02T02:18:38;100765.66;;;9.63;100.00
4085;BME280;2057;50.858;6.572;2023-05-02T02:21:08;100773.19;;;9.62;100.00
4085;BME280;2057;50.858;6.572;2023-05-02T02:23:37;100771.59;;;9.64;100.00
4085;BME280;2057;50.858;6.572;2023-05-02T02:26:04;100774.03;;;9.62;100.00
4085;BME280;2057;50.858;6.572;2023-05-02T02:28:30;100778.25;;;9.62;100.00
4085;BME280;2057;50.858;6.572;2023-05-02T02:30:56;100781.56;;;9.61;100.00
4085;BME280;2057;50.858;6.572;2023-05-02T02:33:23;100777.53;;;9.64;100.00
4085;BME280;2057;50.858;6.572;2023-05-02T02:36:07;100787.25;;;9.71;100.00
4085;BME280;2057;50.858;6.572;2023-05-02T02:38:51;100779.63;;;9.56;100.00
4085;BME280;2057;50.858;6.572;2023-05-02T02:41:21;100778.38;;;9.50;100.00
4085;BME280;2057;50.858;6.572;2023-05-02T02:44:06;100789.22;;;9.47;100.00
4085;BME280;2057;50.858;6.572;2023-05-02T02:49:43;100791.00;;;9.63;100.00
4085;BME280;2057;50.858;6.572;2023-05-02T02:52:32;100793.97;;;9.56;100.00
4085;BME280;2057;50.858;6.572;2023-05-02T02:55:19;100791.31;;;9.54;100.00
4085;BME280;2057;50.858;6.572;2023-05-02T03:00:31;100791.31;;;9.54;100.00
4085;BME280;2057;50.858;6.572;2023-05-02T03:02:57;100796.00;;;9.62;100.00
4085;BME280;2057;50.858;6.572;2023-05-02T03:05:22;100787.22;;;9.56;100.00
4085;BME280;2057;50.858;6.572;2023-05-02T03:07:48;100793.97;;;9.56;100.00
4085;BME280;2057;50.858;6.572;2023-05-02T03:10:15;100795.09;;;9.61;100.00
4085;BME280;2057;50.858;6.572;2023-05-02T03:12:40;100801.06;;;9.62;100.00
4085;BME280;2057;50.858;6.572;2023-05-02T03:18:10;100802.16;;;9.52;100.00
4085;BME280;2057;50.858;6.572;2023-05-02T03:20:35;100805.75;;;9.55;100.00
4085;BME280;2057;50.858;6.572;2023-05-02T03:23:00;100800.97;;;9.60;100.00
4085;BME280;2057;50.858;6.572;2023-05-02T03:25:26;100809.00;;;9.53;100.00
4085;BME280;2057;50.858;6.572;2023-05-02T03:27:51;100810.13;;;9.58;100.00
4085;BME280;2057;50.858;6.572;2023-05-02T03:30:16;100804.13;;;9.56;100.00
4085;BME280;2057;50.858;6.572;2023-05-02T03:32:42;100809.34;;;9.59;100.00
4085;BME280;2057;50.858;6.572;2023-05-02T03:35:07;100812.84;;;9.61;100.00
4085;BME280;2057;50.858;6.572;2023-05-02T03:37:33;100813.91;;;9.65;100.00
4085;BME280;2057;50.858;6.572;2023-05-02T03:39:59;100813.19;;;9.67;100.00
4085;BME280;2057;50.858;6.572;2023-05-02T03:42:24;100817.47;;;9.68;100.00
4085;BME280;2057;50.858;6.572;2023-05-02T03:44:52;100816.69;;;9.69;100.00
4085;BME280;2057;50.858;6.572;2023-05-02T03:47:18;100819.88;;;9.65;100.00
4085;BME280;2057;50.858;6.572;2023-05-02T03:49:43;100824.03;;;9.65;100.00
4085;BME280;2057;50.858;6.572;2023-05-02T03:52:09;100825.09;;;9.68;100.00
4085;BME280;2057;50.858;6.572;2023-05-02T03:54:34;100821.97;;;9.72;100.00
4085;BME280;2057;50.858;6.572;2023-05-02T03:57:00;100828.00;;;9.75;100.00
4085;BME280;2057;50.858;6.572;2023-05-02T03:59:25;100831.75;;;9.81;100.00
4085;BME280;2057;50.858;6.572;2023-05-02T04:01:51;100827.03;;;9.72;100.00
4085;BME280;2057;50.858;6.572;2023-05-02T04:04:16;100827.63;;;9.68;100.00
4085;BME280;2057;50.858;6.572;2023-05-02T04:06:42;100831.31;;;9.73;100.00
4085;BME280;2057;50.858;6.572;2023-05-02T04:09:07;100834.00;;;9.77;100.00
4085;BME280;2057;50.858;6.572;2023-05-02T04:11:32;100835.75;;;9.78;100.00
4085;BME280;2057;50.858;6.572;2023-05-02T04:13:58;100851.94;;;9.80;100.00
4085;BME280;2057;50.858;6.572;2023-05-02T04:16:24;100847.06;;;9.83;100.00
4085;BME280;2057;50.858;6.572;2023-05-02T04:18:49;100846.97;;;9.81;100.00
4085;BME280;2057;50.858;6.572;2023-05-02T04:21:15;100852.72;;;9.79;100.00
4085;BME280;2057;50.858;6.572;2023-05-02T04:23:40;100857.03;;;9.80;100.00
4085;BME280;2057;50.858;6.572;2023-05-02T04:26:05;100854.84;;;9.86;100.00
4085;BME280;2057;50.858;6.572;2023-05-02T04:28:31;100862.38;;;9.84;100.00
4085;BME280;2057;50.858;6.572;2023-05-02T04:30:56;100870.75;;;9.83;100.00
4085;BME280;2057;50.858;6.572;2023-05-02T04:33:22;100867.53;;;9.71;100.00
4085;BME280;2057;50.858;6.572;2023-05-02T04:35:48;100873.00;;;9.79;100.00
4085;BME280;2057;50.858;6.572;2023-05-02T04:38:13;100874.84;;;9.81;100.00
4085;BME280;2057;50.858;6.572;2023-05-02T04:40:39;100870.03;;;9.86;100.00
4085;BME280;2057;50.858;6.572;2023-05-02T04:43:04;100877.56;;;9.84;100.00
4085;BME280;2057;50.858;6.572;2023-05-02T04:45:30;100883.09;;;9.92;100.00
4085;BME280;2057;50.858;6.572;2023-05-02T04:47:55;100891.66;;;9.94;100.00
4085;BME280;2057;50.858;6.572;2023-05-02T04:50:20;100889.22;;;9.96;100.00
4085;BME280;2057;50.858;6.572;2023-05-02T04:52:46;100889.13;;;9.79;100.00
4085;BME280;2057;50.858;6.572;2023-05-02T04:55:14;100890.34;;;9.86;100.00
4085;BME280;2057;50.858;6.572;2023-05-02T04:57:39;100893.75;;;9.86;100.00
4085;BME280;2057;50.858;6.572;2023-05-02T05:00:05;100893.34;;;9.94;100.00
4085;BME280;2057;50.858;6.572;2023-05-02T05:02:33;100894.13;;;9.93;100.00
4085;BME280;2057;50.858;6.572;2023-05-02T05:05:00;100904.00;;;10.03;100.00
4085;BME280;2057;50.858;6.572;2023-05-02T05:07:26;100903.47;;;9.94;100.00
4085;BME280;2057;50.858;6.572;2023-05-02T05:09:53;100904.53;;;9.97;100.00
4085;BME280;2057;50.858;6.572;2023-05-02T05:12:19;100913.63;;;9.94;100.00
4085;BME280;2057;50.858;6.572;2023-05-02T05:14:47;100916.25;;;9.95;100.00
4085;BME280;2057;50.858;6.572;2023-05-02T05:17:13;100925.69;;;9.98;100.00
4085;BME280;2057;50.858;6.572;2023-05-02T05:19:39;100925.34;;;9.92;100.00
4085;BME280;2057;50.858;6.572;2023-05-02T05:22:04;100923.00;;;9.95;100.00
4085;BME280;2057;50.858;6.572;2023-05-02T05:24:30;100922.63;;;10.03;100.00
4085;BME280;2057;50.858;6.572;2023-05-02T05:26:55;100930.88;;;9.99;100.00
4085;BME280;2057;50.858;6.572;2023-05-02T05:29:20;100927.25;;;9.81;100.00
4085;BME280;2057;50.858;6.572;2023-05-02T05:31:46;100926.22;;;9.92;100.00
4085;BME280;2057;50.858;6.572;2023-05-02T05:34:12;100936.38;;;9.92;100.00
4085;BME280;2057;50.858;6.572;2023-05-02T05:36:39;100941.59;;;9.95;100.00
4085;BME280;2057;50.858;6.572;2023-05-02T05:39:04;100944.59;;;10.03;100.00
4085;BME280;2057;50.858;6.572;2023-05-02T05:41:30;100949.22;;;9.95;100.00
4085;BME280;2057;50.858;6.572;2023-05-02T05:43:56;100946.09;;;9.99;100.00
4085;BME280;2057;50.858;6.572;2023-05-02T05:46:21;100951.47;;;9.91;100.00
4085;BME280;2057;50.858;6.572;2023-05-02T05:48:47;100962.09;;;9.98;100.00
4085;BME280;2057;50.858;6.572;2023-05-02T05:51:12;100968.19;;;9.87;100.00
4085;BME280;2057;50.858;6.572;2023-05-02T05:53:37;100969.72;;;9.85;100.00
4085;BME280;2057;50.858;6.572;2023-05-02T05:56:12;100974.66;;;9.68;100.00
4085;BME280;2057;50.858;6.572;2023-05-02T05:58:38;100976.00;;;9.77;100.00
4085;BME280;2057;50.858;6.572;2023-05-02T06:01:04;100984.09;;;9.84;100.00
4085;BME280;2057;50.858;6.572;2023-05-02T06:03:30;100978.38;;;9.73;100.00
4085;BME280;2057;50.858;6.572;2023-05-02T06:05:56;100981.78;;;9.74;100.00
4085;BME280;2057;50.858;6.572;2023-05-02T06:08:21;100979.94;;;9.71;100.00
4085;BME280;2057;50.858;6.572;2023-05-02T06:10:49;100987.47;;;9.85;100.00
4085;BME280;2057;50.858;6.572;2023-05-02T06:13:14;100992.13;;;9.77;100.00
4085;BME280;2057;50.858;6.572;2023-05-02T06:15:39;100991.63;;;9.69;100.00
4085;BME280;2057;50.858;6.572;2023-05-02T06:18:05;100997.88;;;9.75;100.00
4085;BME280;2057;50.858;6.572;2023-05-02T06:20:31;100992.81;;;9.75;100.00
4085;BME280;2057;50.858;6.572;2023-05-02T06:22:56;101000.09;;;9.83;100.00
4085;BME280;2057;50.858;6.572;2023-05-02T06:25:21;101003.25;;;9.66;100.00
4085;BME280;2057;50.858;6.572;2023-05-02T06:27:47;101010.78;;;9.64;100.00
4085;BME280;2057;50.858;6.572;2023-05-02T06:30:12;101015.84;;;9.64;100.00
4085;BME280;2057;50.858;6.572;2023-05-02T06:32:37;101015.19;;;9.53;100.00
4085;BME280;2057;50.858;6.572;2023-05-02T06:35:03;101027.56;;;9.62;100.00
4085;BME280;2057;50.858;6.572;2023-05-02T06:37:32;101027.25;;;9.71;100.00
4085;BME280;2057;50.858;6.572;2023-05-02T06:39:58;101030.72;;;9.73;100.00
4085;BME280;2057;50.858;6.572;2023-05-02T06:42:23;101028.19;;;9.73;100.00
4085;BME280;2057;50.858;6.572;2023-05-02T06:44:50;101035.09;;;9.76;100.00
4085;BME280;2057;50.858;6.572;2023-05-02T06:47:15;101034.44;;;9.78;100.00
4085;BME280;2057;50.858;6.572;2023-05-02T06:49:40;101041.16;;;9.78;100.00
4085;BME280;2057;50.858;6.572;2023-05-02T06:52:06;101047.41;;;9.69;100.00
4085;BME280;2057;50.858;6.572;2023-05-02T06:54:31;101048.97;;;9.67;100.00
4085;BME280;2057;50.858;6.572;2023-05-02T06:56:59;101055.63;;;9.65;100.00
4085;BME280;2057;50.858;6.572;2023-05-02T06:59:25;101054.03;;;9.67;100.00
4085;BME280;2057;50.858;6.572;2023-05-02T07:01:50;101064.59;;;9.73;100.00
4085;BME280;2057;50.858;6.572;2023-05-02T07:04:15;101057.16;;;9.77;100.00
4085;BME280;2057;50.858;6.572;2023-05-02T07:06:41;101069.84;;;9.77;100.00
4085;BME280;2057;50.858;6.572;2023-05-02T07:09:06;101072.97;;;9.72;100.00
4085;BME280;2057;50.858;6.572;2023-05-02T07:11:32;101067.59;;;9.81;100.00
4085;BME280;2057;50.858;6.572;2023-05-02T07:13:57;101074.13;;;9.91;100.00
4085;BME280;2057;50.858;6.572;2023-05-02T07:16:26;101067.84;;;9.99;100.00
4085;BME280;2057;50.858;6.572;2023-05-02T07:18:54;101074.97;;;10.05;100.00
4085;BME280;2057;50.858;6.572;2023-05-02T07:21:20;101078.84;;;10.00;100.00
4085;BME280;2057;50.858;6.572;2023-05-02T07:23:45;101081.09;;;9.95;100.00
4085;BME280;2057;50.858;6.572;2023-05-02T07:26:10;101086.94;;;10.08;100.00
4085;BME280;2057;50.858;6.572;2023-05-02T07:28:36;101083.84;;;9.98;100.00
4085;BME280;2057;50.858;6.572;2023-05-02T07:31:01;101091.69;;;10.16;100.00
4085;BME280;2057;50.858;6.572;2023-05-02T07:33:27;101087.34;;;10.00;100.00
4085;BME280;2057;50.858;6.572;2023-05-02T07:35:52;101095.63;;;9.98;100.00
4085;BME280;2057;50.858;6.572;2023-05-02T07:38:17;101098.06;;;10.10;100.00
4085;BME280;2057;50.858;6.572;2023-05-02T07:40:45;101099.63;;;10.08;100.00
4085;BME280;2057;50.858;6.572;2023-05-02T07:43:13;101100.63;;;9.96;100.00
4085;BME280;2057;50.858;6.572;2023-05-02T07:45:40;101109.75;;;9.79;100.00
4085;BME280;2057;50.858;6.572;2023-05-02T07:48:05;101111.78;;;9.71;100.00
4085;BME280;2057;50.858;6.572;2023-05-02T07:50:30;101109.34;;;9.86;100.00
4085;BME280;2057;50.858;6.572;2023-05-02T07:52:56;101117.22;;;9.91;100.00
4085;BME280;2057;50.858;6.572;2023-05-02T07:55:21;101114.78;;;9.93;100.00
4085;BME280;2057;50.858;6.572;2023-05-02T07:57:47;101118.09;;;9.92;100.00
4085;BME280;2057;50.858;6.572;2023-05-02T08:00:13;101120.72;;;9.93;100.00
4085;BME280;2057;50.858;6.572;2023-05-02T08:02:39;101125.50;;;10.02;100.00
4085;BME280;2057;50.858;6.572;2023-05-02T08:05:05;101124.66;;;10.16;100.00
4085;BME280;2057;50.858;6.572;2023-05-02T08:07:31;101118.13;;;10.20;100.00
4085;BME280;2057;50.858;6.572;2023-05-02T08:09:57;101126.72;;;10.22;100.00
4085;BME280;2057;50.858;6.572;2023-05-02T08:12:23;101129.84;;;10.18;100.00
4085;BME280;2057;50.858;6.572;2023-05-02T08:14:48;101137.34;;;10.16;100.00
4085;BME280;2057;50.858;6.572;2023-05-02T08:17:13;101142.22;;;10.27;100.00
4085;BME280;2057;50.858;6.572;2023-05-02T08:19:39;101145.25;;;10.21;100.00
4085;BME280;2057;50.858;6.572;2023-05-02T08:22:04;101150.31;;;10.34;100.00
4085;BME280;2057;50.858;6.572;2023-05-02T08:24:30;101154.03;;;10.40;100.00
4085;BME280;2057;50.858;6.572;2023-05-02T08:26:55;101155.44;;;10.49;100.00
4085;BME280;2057;50.858;6.572;2023-05-02T08:29:22;101151.03;;;10.75;100.00
4085;BME280;2057;50.858;6.572;2023-05-02T08:31:47;101163.72;;;11.04;100.00
4085;BME280;2057;50.858;6.572;2023-05-02T08:34:13;101156.97;;;11.19;100.00
4085;BME280;2057;50.858;6.572;2023-05-02T08:36:38;101150.66;;;11.42;100.00
4085;BME280;2057;50.858;6.572;2023-05-02T08:39:03;101157.97;;;11.68;100.00
4085;BME280;2057;50.858;6.572;2023-05-02T08:41:29;101161.66;;;11.73;99.37
4085;BME280;2057;50.858;6.572;2023-05-02T08:43:55;101160.56;;;11.84;97.71
4085;BME280;2057;50.858;6.572;2023-05-02T08:46:22;101153.97;;;12.03;96.94
4085;BME280;2057;50.858;6.572;2023-05-02T08:48:49;101164.81;;;12.15;94.16
4085;BME280;2057;50.858;6.572;2023-05-02T08:51:16;101162.66;;;11.91;89.50
4085;BME280;2057;50.858;6.572;2023-05-02T08:53:42;101177.31;;;12.27;90.27
4085;BME280;2057;50.858;6.572;2023-05-02T08:56:09;101177.66;;;12.02;88.08
4085;BME280;2057;50.858;6.572;2023-05-02T08:58:39;101172.53;;;12.17;88.94
4085;BME280;2057;50.858;6.572;2023-05-02T09:01:23;101176.59;;;12.30;89.20
4085;BME280;2057;50.858;6.572;2023-05-02T09:03:56;101177.69;;;12.18;89.46
4085;BME280;2057;50.858;6.572;2023-05-02T09:06:25;101177.84;;;12.21;89.82
4085;BME280;2057;50.858;6.572;2023-05-02T09:08:51;101184.53;;;12.19;89.13
4085;BME280;2057;50.858;6.572;2023-05-02T09:11:17;101194.59;;;11.86;87.83
4085;BME280;2057;50.858;6.572;2023-05-02T09:13:54;101200.66;;;11.88;89.45
4085;BME280;2057;50.858;6.572;2023-05-02T09:16:24;101192.19;;;11.73;88.83
4085;BME280;2057;50.858;6.572;2023-05-02T09:18:56;101197.94;;;11.85;90.64
4085;BME280;2057;50.858;6.572;2023-05-02T09:21:26;101201.72;;;11.77;90.28
4085;BME280;2057;50.858;6.572;2023-05-02T09:23:59;101207.09;;;11.67;92.85
4085;BME280;2057;50.858;6.572;2023-05-02T09:26:25;101200.09;;;11.63;92.04
4085;BME280;2057;50.858;6.572;2023-05-02T09:29:03;101206.47;;;11.71;92.63
4085;BME280;2057;50.858;6.572;2023-05-02T09:31:33;101201.44;;;11.87;93.83
4085;BME280;2057;50.858;6.572;2023-05-02T09:34:12;101206.88;;;12.08;92.29
4085;BME280;2057;50.858;6.572;2023-05-02T09:36:43;101210.00;;;12.19;89.37
4085;BME280;2057;50.858;6.572;2023-05-02T09:39:13;101217.72;;;12.21;92.43
4085;BME280;2057;50.858;6.572;2023-05-02T09:41:43;101216.44;;;12.13;90.90
4085;BME280;2057;50.858;6.572;2023-05-02T09:44:11;101221.81;;;12.02;90.78
4085;BME280;2057;50.858;6.572;2023-05-02T09:46:41;101227.28;;;11.79;88.48
4085;BME280;2057;50.858;6.572;2023-05-02T09:49:07;101231.00;;;11.85;91.12
4085;BME280;2057;50.858;6.572;2023-05-02T09:51:36;101229.00;;;11.80;89.43
4085;BME280;2057;50.858;6.572;2023-05-02T09:54:02;101231.38;;;11.76;90.01
4085;BME280;2057;50.858;6.572;2023-05-02T09:56:27;101238.13;;;11.76;90.93
4085;BME280;2057;50.858;6.572;2023-05-02T09:59:15;101236.56;;;11.78;91.35
4085;BME280;2057;50.858;6.572;2023-05-02T10:01:41;101241.31;;;11.87;93.03
4085;BME280;2057;50.858;6.572;2023-05-02T10:04:13;101242.34;;;11.90;92.96
4085;BME280;2057;50.858;6.572;2023-05-02T10:06:43;101246.56;;;12.05;92.48
4085;BME280;2057;50.858;6.572;2023-05-02T10:09:09;101256.47;;;12.00;92.95
4085;BME280;2057;50.858;6.572;2023-05-02T10:11:37;101258.31;;;12.03;93.11
4085;BME280;2057;50.858;6.572;2023-05-02T10:14:05;101250.69;;;12.03;91.99
4085;BME280;2057;50.858;6.572;2023-05-02T10:16:35;101259.09;;;11.87;91.05
4085;BME280;2057;50.858;6.572;2023-05-02T10:21:26;101261.31;;;11.66;93.09
4085;BME280;2057;50.858;6.572;2023-05-02T10:23:52;101265.50;;;11.50;92.62
4085;BME280;2057;50.858;6.572;2023-05-02T10:26:18;101264.38;;;11.60;93.95
4085;BME280;2057;50.858;6.572;2023-05-02T10:28:45;101270.53;;;11.64;94.16
4085;BME280;2057;50.858;6.572;2023-05-02T10:31:12;101264.38;;;11.60;93.04
4085;BME280;2057;50.858;6.572;2023-05-02T10:33:38;101269.00;;;11.37;91.04
4085;BME280;2057;50.858;6.572;2023-05-02T10:36:04;101275.66;;;11.50;90.76
4085;BME280;2057;50.858;6.572;2023-05-02T10:38:31;101272.50;;;11.39;90.27
4085;BME280;2057;50.858;6.572;2023-05-02T10:41:00;101283.19;;;11.34;90.81
4085;BME280;2057;50.858;6.572;2023-05-02T10:43:29;101285.69;;;11.19;91.07
4085;BME280;2057;50.858;6.572;2023-05-02T10:45:55;101276.34;;;11.18;92.37
4085;BME280;2057;50.858;6.572;2023-05-02T10:48:24;101274.09;;;11.22;92.72
4085;BME280;2057;50.858;6.572;2023-05-02T10:50:55;101278.00;;;11.17;94.23
4085;BME280;2057;50.858;6.572;2023-05-02T10:56:07;101291.91;;;11.09;90.45
4085;BME280;2057;50.858;6.572;2023-05-02T10:58:33;101281.75;;;11.09;91.21
4085;BME280;2057;50.858;6.572;2023-05-02T11:06:24;101292.75;;;10.94;88.21
4085;BME280;2057;50.858;6.572;2023-05-02T11:08:50;101284.50;;;10.83;86.83
4085;BME280;2057;50.858;6.572;2023-05-02T11:14:04;101291.78;;;10.92;87.94
4085;BME280;2057;50.858;6.572;2023-05-02T11:24:42;101296.00;;;11.07;87.68
4085;BME280;2057;50.858;6.572;2023-05-02T11:29:55;101307.25;;;10.82;85.35
4085;BME280;2057;50.858;6.572;2023-05-02T11:32:21;101299.59;;;10.95;87.25
4085;BME280;2057;50.858;6.572;2023-05-02T11:34:47;101294.53;;;11.10;87.58
4085;BME280;2057;50.858;6.572;2023-05-02T11:37:16;101293.59;;;11.52;85.50
4085;BME280;2057;50.858;6.572;2023-05-02T11:39:42;101287.63;;;11.81;86.81
4085;BME280;2057;50.858;6.572;2023-05-02T11:42:07;101294.00;;;12.19;85.85
4085;BME280;2057;50.858;6.572;2023-05-02T11:44:33;101288.38;;;12.25;83.79
4085;BME280;2057;50.858;6.572;2023-05-02T11:46:59;101290.16;;;12.58;83.11
4085;BME280;2057;50.858;6.572;2023-05-02T11:49:25;101294.41;;;12.74;82.77
4085;BME280;2057;50.858;6.572;2023-05-02T11:51:51;101293.25;;;12.68;84.22
4085;BME280;2057;50.858;6.572;2023-05-02T11:54:20;101296.41;;;12.96;81.23
4085;BME280;2057;50.858;6.572;2023-05-02T11:56:46;101296.63;;;13.33;82.19
4085;BME280;2057;50.858;6.572;2023-05-02T11:59:12;101306.16;;;13.38;81.20
4085;BME280;2057;50.858;6.572;2023-05-02T12:01:48;101303.94;;;13.11;79.33
4085;BME280;2057;50.858;6.572;2023-05-02T12:04:15;101316.88;;;12.97;78.69
4085;BME280;2057;50.858;6.572;2023-05-02T12:06:58;101308.97;;;12.93;78.59
4085;BME280;2057;50.858;6.572;2023-05-02T12:09:23;101309.59;;;13.05;78.06
4085;BME280;2057;50.858;6.572;2023-05-02T12:11:52;101302.94;;;13.40;78.84
4085;BME280;2057;50.858;6.572;2023-05-02T12:14:26;101300.84;;;13.84;77.86
4085;BME280;2057;50.858;6.572;2023-05-02T12:16:51;101299.50;;;13.74;75.51
4085;BME280;2057;50.858;6.572;2023-05-02T12:19:17;101308.66;;;13.20;73.21
4085;BME280;2057;50.858;6.572;2023-05-02T12:21:43;101308.13;;;13.25;76.29
4085;BME280;2057;50.858;6.572;2023-05-02T12:24:08;101294.47;;;13.41;78.70
4085;BME280;2057;50.858;6.572;2023-05-02T12:26:35;101299.31;;;13.70;75.69
4085;BME280;2057;50.858;6.572;2023-05-02T12:29:00;101306.50;;;12.94;72.79
4085;BME280;2057;50.858;6.572;2023-05-02T12:31:26;101311.34;;;12.90;76.11
4085;BME280;2057;50.858;6.572;2023-05-02T12:33:55;101312.72;;;12.83;76.09
4085;BME280;2057;50.858;6.572;2023-05-02T12:36:22;101310.25;;;13.01;76.58
4085;BME280;2057;50.858;6.572;2023-05-02T12:38:52;101315.34;;;13.17;75.33
4085;BME280;2057;50.858;6.572;2023-05-02T12:41:31;101315.72;;;12.92;73.78
4085;BME280;2057;50.858;6.572;2023-05-02T12:43:57;101324.91;;;13.38;72.27
4085;BME280;2057;50.858;6.572;2023-05-02T12:46:24;101325.72;;;13.54;74.75
4085;BME280;2057;50.858;6.572;2023-05-02T12:49:03;101333.78;;;13.45;73.64
4085;BME280;2057;50.858;6.572;2023-05-02T12:51:29;101334.09;;;13.34;73.86
4085;BME280;2057;50.858;6.572;2023-05-02T12:53:55;101337.19;;;13.29;74.55
4085;BME280;2057;50.858;6.572;2023-05-02T12:56:21;101341.03;;;13.21;72.47
4085;BME280;2057;50.858;6.572;2023-05-02T12:58:48;101338.63;;;13.24;72.13
4085;BME280;2057;50.858;6.572;2023-05-02T13:01:15;101331.63;;;13.53;72.27
4085;BME280;2057;50.858;6.572;2023-05-02T13:03:42;101332.81;;;13.94;70.37
4085;BME280;2057;50.858;6.572;2023-05-02T13:06:07;101327.94;;;14.17;69.09
4085;BME280;2057;50.858;6.572;2023-05-02T13:08:34;101334.34;;;13.90;66.89
4085;BME280;2057;50.858;6.572;2023-05-02T13:11:01;101325.38;;;14.35;66.40
4085;BME280;2057;50.858;6.572;2023-05-02T13:13:27;101326.84;;;14.30;63.17
4085;BME280;2057;50.858;6.572;2023-05-02T13:15:53;101330.97;;;13.73;63.54
4085;BME280;2057;50.858;6.572;2023-05-02T13:18:18;101337.34;;;13.48;66.00
4085;BME280;2057;50.858;6.572;2023-05-02T13:20:43;101335.44;;;13.11;66.24
4085;BME280;2057;50.858;6.572;2023-05-02T13:23:09;101333.72;;;13.43;66.75
4085;BME280;2057;50.858;6.572;2023-05-02T13:25:34;101339.25;;;13.36;68.20
4085;BME280;2057;50.858;6.572;2023-05-02T13:27:59;101338.97;;;13.46;70.61
4085;BME280;2057;50.858;6.572;2023-05-02T13:30:25;101343.94;;;13.61;69.66
4085;BME280;2057;50.858;6.572;2023-05-02T13:32:50;101340.59;;;13.62;68.50
4085;BME280;2057;50.858;6.572;2023-05-02T13:35:15;101336.03;;;13.90;67.14
4085;BME280;2057;50.858;6.572;2023-05-02T13:37:43;101337.44;;;13.67;66.07
4085;BME280;2057;50.858;6.572;2023-05-02T13:40:09;101342.06;;;13.92;63.76
4085;BME280;2057;50.858;6.572;2023-05-02T13:42:34;101342.31;;;14.15;63.13
4085;BME280;2057;50.858;6.572;2023-05-02T13:45:00;101337.91;;;13.94;61.99
4085;BME280;2057;50.858;6.572;2023-05-02T13:47:29;101338.16;;;14.71;63.75
4085;BME280;2057;50.858;6.572;2023-05-02T13:49:54;101341.50;;;15.47;62.57
4085;BME280;2057;50.858;6.572;2023-05-02T13:52:20;101340.03;;;15.73;61.00
4085;BME280;2057;50.858;6.572;2023-05-02T13:54:45;101335.75;;;15.74;59.80
4085;BME280;2057;50.858;6.572;2023-05-02T13:57:10;101329.41;;;15.64;61.28